Aérodrome :
LOGIN :

S'inscrire | Disclaimer

   EN    FR    IT 

 










Légende :    VFR   VFR Marginal   IFR   IFR Intensif   IFR Très Intensif
Visi : 
Plafond : 
>= 8 km
>= 3000ft
5 à 8 km
1000 à 3000 ft
1500m à 5 km
500 à 1000 ft
800 à 1500m
200 à 500 ft
< 800m
< 200 ft
Symboles :   Orages  Brouillard  Fortes neiges  Fortes précipitations  Vent > 20 kt
SIGMETs :   Divers  Orages  Givrage  Turbulence  Onde Orograph.  Cendres Volcan.






- Altitude de l'aérodrome : 1516 ft
- Code IATA : AGB


EDMA - Augsburg

DERNIER METAR :
  • 162050Z AUTO 10002KT 9999 // FEW100/// BKN130/// 15/12 Q1013

METARs EXPIRÉS :
  • 162020Z AUTO 08003KT 9999 // FEW100/// BKN130/// 15/13 Q1013
  • 161950Z AUTO 11003KT 9999 // BKN140/// 16/13 Q1012
  • 161920Z AUTO 08002KT 9999 // BKN140/// 17/13 Q1012
  • 161850Z 23002KT CAVOK 19/11 Q1012
  • 161820Z 28005KT CAVOK 20/10 Q1011
  • 161750Z 26005KT CAVOK 21/10 Q1011
  • 161720Z 21003KT 170V270 CAVOK 23/11 Q1011
  • 161650Z 20006KT CAVOK 22/10 Q1011
  • 161620Z 24005KT 180V280 CAVOK 23/09 Q1011

TAF TAF EDMA
Valide du 16 à 18h jusqu'au 17 à 00h UTC


161700Z 1618/1624 20005KT CAVOK
BECMG 1618/1620 VRB03KT



MET'MAP, la Météo Aéronautique d'un coup d'oeil ! - Copyright ORBIFLY Décembre 2007 - Disclaimer

ORBIFLY MET'MAP TEAM :

Programmation & Développement : Alexandra Zaïnal
Sur une idée originale de : Baudouin d'Aumeries
Soutien technique & logistique : Manuel Goepfert
Assistance : Marc-Olivier Méhu




SOURCES & CREDITS :

   NOAA